Thunder radar more information blitzortung!


avis per Pluja more information rain snow radar


Visita la nostra xarxa de llocs de meteo:

Template documentation
and downloads

And another site



Rain From: 18-10-2018 10:00 Until: 16:59 warning for: Rain Level: Yellow info button

Pagina Historial Weather Underground text

Diari Resum Novembre 23, 2017 Unitats:  Tant    Imperial   Mètric
« Previous Dia
SegĂźent Dia »
Diari Setmana Mensual Anual Personalitzada
  Maxima: Minima: Media:
Temperatura: TemperatureC °F /  -17.8 °C 6.0 °F /  -14.4 °C 12.8 °F /  -10.7 °C
Punt de rosada: DewpointC °F /  -17.8 °C 1.9 °F /  -16.7 °C 8.5 °F /  -13.1 °C
Humitat: Humidity % 62 % 75 %
Wind Speed: WindSpeedKMH mph /  0 km/h - 3.4 mph /  5.5 km/h
RĂ fegues de vent: WindSpeedGustKMH mph /  0 km/h - -
Vent:- - SSW
Pression baro: PressurehPa in /  0 hPa 1017.8 in /  34462.7 hPa -
Precipitacions: 0.0 in /  0 mm    
Historical Graphs
 
 
Dades de taula per Novembre 23, 2017
Temps Temperatura Punt de rosada Pression baro Vent Wind Speed RĂ fegues de vent Humitat Rainfall Rate (Hourly)
TemperatureC °F /  -17.8 °C DewpointC °F /  -17.8 °C PressurehPa in /  0 hPa Calm     Humidity % HourlyPrecipMM in /  0 mm
00:04 8.5 °F /  -13.1 °C 5.6 °F /  -14.7 °C 1017.8 in /  34462.7 hPa Calm     82 % 0.0 in /  0 mm
00:05 6.8 °F /  -14 °C 4.6 °F /  -15.2 °C 1017.8 in /  34462.7 hPa Calm   1.6 mph /  2.6 km/h 86 % 0.0 in /  0 mm
00:09 8.6 °F /  -13 °C 5.9 °F /  -14.5 °C 1017.8 in /  34462.7 hPa NE 3.7 mph /  6 km/h 3.7 mph /  6 km/h 83 % 0.0 in /  0 mm
00:14 8.4 °F /  -13.1 °C 5.7 °F /  -14.6 °C 1017.8 in /  34462.7 hPa NE 3.7 mph /  6 km/h 3.7 mph /  6 km/h 83 % 0.0 in /  0 mm
00:45 6.3 °F /  -14.3 °C 4.3 °F /  -15.4 °C 1017.8 in /  34462.7 hPa Calm     87 % 0.0 in /  0 mm
00:55 6.4 °F /  -14.2 °C 4.4 °F /  -15.3 °C 1017.8 in /  34462.7 hPa Calm     87 % 0.0 in /  0 mm
01:05 6.3 °F /  -14.3 °C 4.1 °F /  -15.5 °C 1017.8 in /  34462.7 hPa SW 3.2 mph /  5.1 km/h 3.2 mph /  5.1 km/h 86 % 0.0 in /  0 mm
01:15 6.1 °F /  -14.4 °C 3.8 °F /  -15.7 °C 1017.8 in /  34462.7 hPa SW 1.6 mph /  2.6 km/h 3.2 mph /  5.1 km/h 85 % 0.0 in /  0 mm
01:25 6.0 °F /  -14.4 °C 3.7 °F /  -15.7 °C 1017.8 in /  34462.7 hPa SW 3.2 mph /  5.1 km/h 4.8 mph /  7.7 km/h 85 % 0.0 in /  0 mm
01:35 6.1 °F /  -14.4 °C 3.8 °F /  -15.7 °C 1017.8 in /  34462.7 hPa WSW 1.6 mph /  2.6 km/h 3.2 mph /  5.1 km/h 85 % 0.0 in /  0 mm
01:45 6.1 °F /  -14.4 °C 3.9 °F /  -15.6 °C 1017.8 in /  34462.7 hPa Calm     86 % 0.0 in /  0 mm
02:15 6.1 °F /  -14.4 °C 3.9 °F /  -15.6 °C 1018.8 in /  34496.6 hPa NNE 1.6 mph /  2.6 km/h 3.2 mph /  5.1 km/h 86 % 0.0 in /  0 mm
02:25 6.4 °F /  -14.2 °C 4.4 °F /  -15.3 °C 1018.8 in /  34496.6 hPa WSW 1.6 mph /  2.6 km/h 3.2 mph /  5.1 km/h 87 % 0.0 in /  0 mm
02:35 6.7 °F /  -14.1 °C 4.8 °F /  -15.1 °C 1018.8 in /  34496.6 hPa Calm     88 % 0.0 in /  0 mm
02:45 6.8 °F /  -14 °C 4.9 °F /  -15.1 °C 1017.8 in /  34462.7 hPa West 1.6 mph /  2.6 km/h 3.2 mph /  5.1 km/h 88 % 0.0 in /  0 mm
02:55 7.2 °F /  -13.8 °C 5.5 °F /  -14.7 °C 1017.8 in /  34462.7 hPa Calm     89 % 0.0 in /  0 mm
03:05 7.2 °F /  -13.8 °C 5.3 °F /  -14.8 °C 1017.8 in /  34462.7 hPa SW 1.6 mph /  2.6 km/h 1.6 mph /  2.6 km/h 88 % 0.0 in /  0 mm
03:15 7.2 °F /  -13.8 °C 5.3 °F /  -14.8 °C 1018.8 in /  34496.6 hPa Calm   1.6 mph /  2.6 km/h 88 % 0.0 in /  0 mm
03:25 7.3 °F /  -13.7 °C 5.4 °F /  -14.8 °C 1018.8 in /  34496.6 hPa Calm     88 % 0.0 in /  0 mm
03:35 7.4 °F /  -13.7 °C 5.7 °F /  -14.6 °C 1018.8 in /  34496.6 hPa Calm   3.2 mph /  5.1 km/h 89 % 0.0 in /  0 mm
03:45 7.3 °F /  -13.7 °C 5.4 °F /  -14.8 °C 1018.8 in /  34496.6 hPa SSW 1.6 mph /  2.6 km/h 3.2 mph /  5.1 km/h 88 % 0.0 in /  0 mm
03:55 7.4 °F /  -13.7 °C 5.6 °F /  -14.7 °C 1018.8 in /  34496.6 hPa WSW 1.6 mph /  2.6 km/h 3.2 mph /  5.1 km/h 88 % 0.0 in /  0 mm
04:05 7.6 °F /  -13.6 °C 5.7 °F /  -14.6 °C 1018.8 in /  34496.6 hPa SW 1.6 mph /  2.6 km/h 3.2 mph /  5.1 km/h 88 % 0.0 in /  0 mm
04:15 7.8 °F /  -13.4 °C 5.9 °F /  -14.5 °C 1018.8 in /  34496.6 hPa SW 1.6 mph /  2.6 km/h 3.2 mph /  5.1 km/h 88 % 0.0 in /  0 mm
04:25 8.2 °F /  -13.2 °C 6.5 °F /  -14.2 °C 1018.8 in /  34496.6 hPa Calm     89 % 0.0 in /  0 mm
04:35 9.1 °F /  -12.7 °C 7.6 °F /  -13.6 °C 1018.8 in /  34496.6 hPa WNW 1.6 mph /  2.6 km/h 1.6 mph /  2.6 km/h 90 % 0.0 in /  0 mm
04:45 9.8 °F /  -12.3 °C 8.1 °F /  -13.3 °C 1018.8 in /  34496.6 hPa NE 1.6 mph /  2.6 km/h 3.2 mph /  5.1 km/h 89 % 0.0 in /  0 mm
04:55 10.6 °F /  -11.9 °C 8.7 °F /  -12.9 °C 1018.8 in /  34496.6 hPa SE 1.6 mph /  2.6 km/h 3.2 mph /  5.1 km/h 88 % 0.0 in /  0 mm
05:05 10.8 °F /  -11.8 °C 8.6 °F /  -13 °C 1018.8 in /  34496.6 hPa SW 1.6 mph /  2.6 km/h 3.2 mph /  5.1 km/h 86 % 0.0 in /  0 mm
05:15 11.0 °F /  -11.7 °C 8.4 °F /  -13.1 °C 1019.9 in /  34533.8 hPa SSW 3.2 mph /  5.1 km/h 3.2 mph /  5.1 km/h 84 % 0.0 in /  0 mm
05:25 11.7 °F /  -11.3 °C 8.9 °F /  -12.8 °C 1018.8 in /  34496.6 hPa South 1.6 mph /  2.6 km/h 4.8 mph /  7.7 km/h 83 % 0.0 in /  0 mm
05:35 12.1 °F /  -11.1 °C 8.9 °F /  -12.8 °C 1018.8 in /  34496.6 hPa NNE 1.6 mph /  2.6 km/h 4.8 mph /  7.7 km/h 81 % 0.0 in /  0 mm
05:45 12.0 °F /  -11.1 °C 8.4 °F /  -13.1 °C 1019.9 in /  34533.8 hPa NNE 4.8 mph /  7.7 km/h 9.7 mph /  15.6 km/h 79 % 0.0 in /  0 mm
05:55 11.9 °F /  -11.2 °C 8.4 °F /  -13.1 °C 1018.8 in /  34496.6 hPa NE 1.6 mph /  2.6 km/h 6.4 mph /  10.3 km/h 79 % 0.0 in /  0 mm
11:57 12.2 °F /  -11 °C 8.5 °F /  -13.1 °C 1018.8 in /  34496.6 hPa NE 3.7 mph /  6 km/h 3.7 mph /  6 km/h 78 % 0.0 in /  0 mm
11:58 12.2 °F /  -11 °C 8.5 °F /  -13.1 °C 1018.8 in /  34496.6 hPa NE 3.7 mph /  6 km/h 3.7 mph /  6 km/h 78 % 0.0 in /  0 mm
12:03 12.3 °F /  -10.9 °C 8.6 °F /  -13 °C 1018.8 in /  34496.6 hPa NW 5.6 mph /  9 km/h 5.6 mph /  9 km/h 78 % 0.0 in /  0 mm
12:08 12.2 °F /  -11 °C 8.3 °F /  -13.2 °C 1018.8 in /  34496.6 hPa North 3.7 mph /  6 km/h 3.7 mph /  6 km/h 77 % 0.0 in /  0 mm
12:13 12.3 °F /  -10.9 °C 8.4 °F /  -13.1 °C 1018.8 in /  34496.6 hPa North 3.7 mph /  6 km/h 3.7 mph /  6 km/h 77 % 0.0 in /  0 mm
12:18 12.4 °F /  -10.9 °C 8.3 °F /  -13.2 °C 1018.8 in /  34496.6 hPa East 3.7 mph /  6 km/h   76 % 0.0 in /  0 mm
12:23 12.5 °F /  -10.8 °C 8.4 °F /  -13.1 °C 1018.8 in /  34496.6 hPa NW 3.2 mph /  5.1 km/h   76 % 0.0 in /  0 mm
12:28 12.5 °F /  -10.8 °C 8.4 °F /  -13.1 °C 1018.8 in /  34496.6 hPa ENE 3.7 mph /  6 km/h 3.7 mph /  6 km/h 76 % 0.0 in /  0 mm
12:38 12.7 °F /  -10.7 °C 8.6 °F /  -13 °C 1018.8 in /  34496.6 hPa NW 3.7 mph /  6 km/h 3.7 mph /  6 km/h 76 % 0.0 in /  0 mm
12:43 12.9 °F /  -10.6 °C 8.8 °F /  -12.9 °C 1018.8 in /  34496.6 hPa North 1.9 mph /  3.1 km/h 1.9 mph /  3.1 km/h 76 % 0.0 in /  0 mm
12:48 13.5 °F /  -10.3 °C 9.3 °F /  -12.6 °C 1018.8 in /  34496.6 hPa SW 3.7 mph /  6 km/h 3.7 mph /  6 km/h 76 % 0.0 in /  0 mm
12:53 14.1 °F /  -9.9 °C 9.9 °F /  -12.3 °C 1018.8 in /  34496.6 hPa West 4.2 mph /  6.8 km/h 4.2 mph /  6.8 km/h 76 % 0.0 in /  0 mm
12:58 14.5 °F /  -9.7 °C 10.1 °F /  -12.2 °C 1018.8 in /  34496.6 hPa SSE 3.7 mph /  6 km/h 3.7 mph /  6 km/h 75 % 0.0 in /  0 mm
13:03 14.7 °F /  -9.6 °C 10.3 °F /  -12.1 °C 1018.8 in /  34496.6 hPa WSW 3.7 mph /  6 km/h   75 % 0.0 in /  0 mm
13:13 15.5 °F /  -9.2 °C 11.1 °F /  -11.6 °C 1018.8 in /  34496.6 hPa SW 7.4 mph /  11.9 km/h 7.4 mph /  11.9 km/h 75 % 0.0 in /  0 mm
13:18 15.8 °F /  -9 °C 11.2 °F /  -11.6 °C 1018.8 in /  34496.6 hPa WSW 3.7 mph /  6 km/h 3.7 mph /  6 km/h 74 % 0.0 in /  0 mm
13:23 16.1 °F /  -8.8 °C 11.7 °F /  -11.3 °C 1018.8 in /  34496.6 hPa SW 5.6 mph /  9 km/h 5.6 mph /  9 km/h 75 % 0.0 in /  0 mm
13:28 16.4 °F /  -8.7 °C 11.9 °F /  -11.2 °C 1018.8 in /  34496.6 hPa SW 7.4 mph /  11.9 km/h 7.4 mph /  11.9 km/h 75 % 0.0 in /  0 mm
13:33 16.6 °F /  -8.6 °C 11.9 °F /  -11.2 °C 1017.8 in /  34462.7 hPa SW 7.4 mph /  11.9 km/h 7.4 mph /  11.9 km/h 74 % 0.0 in /  0 mm
13:38 16.7 °F /  -8.5 °C 12.1 °F /  -11.1 °C 1017.8 in /  34462.7 hPa SW 9.3 mph /  15 km/h 9.3 mph /  15 km/h 74 % 0.0 in /  0 mm
13:43 16.9 °F /  -8.4 °C 12.0 °F /  -11.1 °C 1017.8 in /  34462.7 hPa WSW 7.4 mph /  11.9 km/h 7.4 mph /  11.9 km/h 73 % 0.0 in /  0 mm
13:48 17.0 °F /  -8.3 °C 11.9 °F /  -11.2 °C 1017.8 in /  34462.7 hPa SW 8.7 mph /  14 km/h 8.7 mph /  14 km/h 72 % 0.0 in /  0 mm
13:53 17.1 °F /  -8.3 °C 12.0 °F /  -11.1 °C 1017.8 in /  34462.7 hPa WNW 5.6 mph /  9 km/h 5.6 mph /  9 km/h 72 % 0.0 in /  0 mm
13:58 17.3 °F /  -8.2 °C 12.2 °F /  -11 °C 1017.8 in /  34462.7 hPa SW 5.6 mph /  9 km/h 5.6 mph /  9 km/h 72 % 0.0 in /  0 mm
14:03 17.5 °F /  -8.1 °C 12.2 °F /  -11 °C 1017.8 in /  34462.7 hPa West 5.0 mph /  8 km/h 5.0 mph /  8 km/h 71 % 0.0 in /  0 mm
14:08 17.6 °F /  -8 °C 12.1 °F /  -11.1 °C 1017.8 in /  34462.7 hPa WSW 7.4 mph /  11.9 km/h 7.4 mph /  11.9 km/h 70 % 0.0 in /  0 mm
14:13 17.7 °F /  -7.9 °C 11.9 °F /  -11.2 °C 1017.8 in /  34462.7 hPa SW 7.4 mph /  11.9 km/h 7.4 mph /  11.9 km/h 69 % 0.0 in /  0 mm
14:18 17.8 °F /  -7.9 °C 12.1 °F /  -11.1 °C 1017.8 in /  34462.7 hPa SW 9.3 mph /  15 km/h 9.3 mph /  15 km/h 69 % 0.0 in /  0 mm
14:23 17.9 °F /  -7.8 °C 11.9 °F /  -11.2 °C 1017.8 in /  34462.7 hPa South 7.4 mph /  11.9 km/h 7.4 mph /  11.9 km/h 68 % 0.0 in /  0 mm
14:28 18.3 °F /  -7.6 °C 12.3 °F /  -10.9 °C 1017.8 in /  34462.7 hPa SW 5.6 mph /  9 km/h 5.6 mph /  9 km/h 68 % 0.0 in /  0 mm
14:38 18.4 °F /  -7.6 °C 12.4 °F /  -10.9 °C 1017.8 in /  34462.7 hPa WSW 7.4 mph /  11.9 km/h 7.4 mph /  11.9 km/h 68 % 0.0 in /  0 mm
14:43 18.4 °F /  -7.6 °C 12.4 °F /  -10.9 °C 1017.8 in /  34462.7 hPa SW 9.3 mph /  15 km/h 9.3 mph /  15 km/h 68 % 0.0 in /  0 mm
14:53 18.4 °F /  -7.6 °C 12.2 °F /  -11 °C 1017.8 in /  34462.7 hPa SW 9.3 mph /  15 km/h 9.3 mph /  15 km/h 67 % 0.0 in /  0 mm
14:58 18.7 °F /  -7.4 °C 12.4 °F /  -10.9 °C 1017.8 in /  34462.7 hPa WSW 9.3 mph /  15 km/h 9.3 mph /  15 km/h 67 % 0.0 in /  0 mm
15:03 18.8 °F /  -7.3 °C 12.3 °F /  -10.9 °C 1017.8 in /  34462.7 hPa SSW 9.3 mph /  15 km/h 9.3 mph /  15 km/h 66 % 0.0 in /  0 mm
15:08 18.8 °F /  -7.3 °C 12.3 °F /  -10.9 °C 1017.8 in /  34462.7 hPa SSW 5.6 mph /  9 km/h 5.6 mph /  9 km/h 66 % 0.0 in /  0 mm
15:23 19.3 °F /  -7.1 °C 12.1 °F /  -11.1 °C 1017.8 in /  34462.7 hPa West 7.4 mph /  11.9 km/h 7.4 mph /  11.9 km/h 63 % 0.0 in /  0 mm
15:28 19.2 °F /  -7.1 °C 12.0 °F /  -11.1 °C 1017.8 in /  34462.7 hPa SW 7.4 mph /  11.9 km/h 7.4 mph /  11.9 km/h 63 % 0.0 in /  0 mm
15:33 19.3 °F /  -7.1 °C 12.1 °F /  -11.1 °C 1017.8 in /  34462.7 hPa WSW 5.0 mph /  8 km/h 5.0 mph /  8 km/h 63 % 0.0 in /  0 mm
15:38 19.5 °F /  -6.9 °C 12.3 °F /  -10.9 °C 1017.8 in /  34462.7 hPa WSW 5.8 mph /  9.3 km/h 5.8 mph /  9.3 km/h 63 % 0.0 in /  0 mm
15:43 19.6 °F /  -6.9 °C 12.4 °F /  -10.9 °C 1017.8 in /  34462.7 hPa SW 5.6 mph /  9 km/h 5.6 mph /  9 km/h 63 % 0.0 in /  0 mm
15:48 19.6 °F /  -6.9 °C 12.1 °F /  -11.1 °C 1017.8 in /  34462.7 hPa SSW 7.4 mph /  11.9 km/h 7.4 mph /  11.9 km/h 62 % 0.0 in /  0 mm
15:53 19.7 °F /  -6.8 °C 12.2 °F /  -11 °C 1017.8 in /  34462.7 hPa SSW 6.4 mph /  10.3 km/h 6.4 mph /  10.3 km/h 62 % 0.0 in /  0 mm
15:58 19.8 °F /  -6.8 °C 12.3 °F /  -10.9 °C 1017.8 in /  34462.7 hPa SW 3.7 mph /  6 km/h 3.7 mph /  6 km/h 62 % 0.0 in /  0 mm
16:03 19.7 °F /  -6.8 °C 12.2 °F /  -11 °C 1017.8 in /  34462.7 hPa SW 6.1 mph /  9.8 km/h 6.1 mph /  9.8 km/h 62 % 0.0 in /  0 mm
16:08 19.6 °F /  -6.9 °C 12.1 °F /  -11.1 °C 1017.8 in /  34462.7 hPa SW 7.4 mph /  11.9 km/h 7.4 mph /  11.9 km/h 62 % 0.0 in /  0 mm
16:13 19.6 °F /  -6.9 °C 12.1 °F /  -11.1 °C 1017.8 in /  34462.7 hPa SW 6.9 mph /  11.1 km/h 6.9 mph /  11.1 km/h 62 % 0.0 in /  0 mm
16:18 19.6 °F /  -6.9 °C 12.1 °F /  -11.1 °C 1017.8 in /  34462.7 hPa SSW 6.4 mph /  10.3 km/h 6.4 mph /  10.3 km/h 62 % 0.0 in /  0 mm
16:23 19.5 °F /  -6.9 °C 12.0 °F /  -11.1 °C 1017.8 in /  34462.7 hPa SW 7.4 mph /  11.9 km/h 7.4 mph /  11.9 km/h 62 % 0.0 in /  0 mm
16:28 19.3 °F /  -7.1 °C 11.8 °F /  -11.2 °C 1017.8 in /  34462.7 hPa SW 5.6 mph /  9 km/h 5.6 mph /  9 km/h 62 % 0.0 in /  0 mm
16:38 19.1 °F /  -7.2 °C 11.7 °F /  -11.3 °C 1017.8 in /  34462.7 hPa SW 3.7 mph /  6 km/h 3.7 mph /  6 km/h 62 % 0.0 in /  0 mm
16:43 18.9 °F /  -7.3 °C 11.9 °F /  -11.2 °C 1017.8 in /  34462.7 hPa SW 3.9 mph /  6.3 km/h 3.9 mph /  6.3 km/h 64 % 0.0 in /  0 mm
16:48 18.8 °F /  -7.3 °C 11.8 °F /  -11.2 °C 1017.8 in /  34462.7 hPa WSW 3.7 mph /  6 km/h 3.7 mph /  6 km/h 64 % 0.0 in /  0 mm
16:58 18.4 °F /  -7.6 °C 11.4 °F /  -11.4 °C 1017.8 in /  34462.7 hPa SW 3.7 mph /  6 km/h 3.7 mph /  6 km/h 64 % 0.0 in /  0 mm
17:03 18.1 °F /  -7.7 °C 11.4 °F /  -11.4 °C 1017.8 in /  34462.7 hPa Calm     65 % 0.0 in /  0 mm
17:08 17.9 °F /  -7.8 °C 11.2 °F /  -11.6 °C 1017.8 in /  34462.7 hPa West 3.7 mph /  6 km/h 3.7 mph /  6 km/h 65 % 0.0 in /  0 mm
17:13 17.6 °F /  -8 °C 10.9 °F /  -11.7 °C 1017.8 in /  34462.7 hPa Calm     65 % 0.0 in /  0 mm
17:28 16.7 °F /  -8.5 °C 10.8 °F /  -11.8 °C 1018.8 in /  34496.6 hPa WSW 1.9 mph /  3.1 km/h 1.9 mph /  3.1 km/h 68 % 0.0 in /  0 mm
17:33 16.5 °F /  -8.6 °C 10.6 °F /  -11.9 °C 1017.8 in /  34462.7 hPa Calm     68 % 0.0 in /  0 mm
17:38 16.3 °F /  -8.7 °C 10.6 °F /  -11.9 °C 1017.8 in /  34462.7 hPa Calm     69 % 0.0 in /  0 mm
17:43 16.1 °F /  -8.8 °C 10.4 °F /  -12 °C 1017.8 in /  34462.7 hPa Calm     69 % 0.0 in /  0 mm
17:53 15.9 °F /  -8.9 °C 10.4 °F /  -12 °C 1018.8 in /  34496.6 hPa WSW 3.2 mph /  5.1 km/h 3.2 mph /  5.1 km/h 70 % 0.0 in /  0 mm
18:03 15.2 °F /  -9.3 °C 9.8 °F /  -12.3 °C 1018.8 in /  34496.6 hPa West 2.3 mph /  3.7 km/h 2.3 mph /  3.7 km/h 70 % 0.0 in /  0 mm
18:08 15.1 °F /  -9.4 °C 9.9 °F /  -12.3 °C 1018.8 in /  34496.6 hPa WSW 3.7 mph /  6 km/h 3.7 mph /  6 km/h 71 % 0.0 in /  0 mm
18:13 14.9 °F /  -9.5 °C 9.9 °F /  -12.3 °C 1018.8 in /  34496.6 hPa SW 3.7 mph /  6 km/h   72 % 0.0 in /  0 mm
18:18 14.8 °F /  -9.6 °C 9.8 °F /  -12.3 °C 1018.8 in /  34496.6 hPa SW 3.7 mph /  6 km/h 3.7 mph /  6 km/h 72 % 0.0 in /  0 mm
18:23 14.5 °F /  -9.7 °C 9.7 °F /  -12.4 °C 1018.8 in /  34496.6 hPa SW 3.7 mph /  6 km/h 3.7 mph /  6 km/h 73 % 0.0 in /  0 mm
18:28 14.3 °F /  -9.8 °C 9.5 °F /  -12.5 °C 1018.8 in /  34496.6 hPa SW 4.2 mph /  6.8 km/h 4.2 mph /  6.8 km/h 73 % 0.0 in /  0 mm
18:33 14.1 °F /  -9.9 °C 9.3 °F /  -12.6 °C 1018.8 in /  34496.6 hPa SW 5.6 mph /  9 km/h 5.6 mph /  9 km/h 73 % 0.0 in /  0 mm
18:38 14.0 °F /  -10 °C 9.2 °F /  -12.7 °C 1018.8 in /  34496.6 hPa SW 4.7 mph /  7.6 km/h 4.7 mph /  7.6 km/h 73 % 0.0 in /  0 mm
18:43 14.0 °F /  -10 °C 9.4 °F /  -12.6 °C 1018.8 in /  34496.6 hPa SW 5.6 mph /  9 km/h 5.6 mph /  9 km/h 74 % 0.0 in /  0 mm
18:53 14.3 °F /  -9.8 °C 9.9 °F /  -12.3 °C 1018.8 in /  34496.6 hPa SW 5.6 mph /  9 km/h 5.6 mph /  9 km/h 75 % 0.0 in /  0 mm
18:58 14.4 °F /  -9.8 °C 10.2 °F /  -12.1 °C 1018.8 in /  34496.6 hPa SW 7.4 mph /  11.9 km/h 7.4 mph /  11.9 km/h 76 % 0.0 in /  0 mm
19:03 14.3 °F /  -9.8 °C 10.1 °F /  -12.2 °C 1019.9 in /  34533.8 hPa WSW 5.6 mph /  9 km/h 5.6 mph /  9 km/h 76 % 0.0 in /  0 mm
19:13 14.2 °F /  -9.9 °C 10.2 °F /  -12.1 °C 1019.9 in /  34533.8 hPa WSW 5.6 mph /  9 km/h 5.6 mph /  9 km/h 77 % 0.0 in /  0 mm
19:18 14.1 °F /  -9.9 °C 10.1 °F /  -12.2 °C 1019.9 in /  34533.8 hPa SW 5.0 mph /  8 km/h 5.0 mph /  8 km/h 77 % 0.0 in /  0 mm
19:23 14.0 °F /  -10 °C 10.1 °F /  -12.2 °C 1019.9 in /  34533.8 hPa SW 7.4 mph /  11.9 km/h 7.4 mph /  11.9 km/h 77 % 0.0 in /  0 mm
19:28 13.9 °F /  -10.1 °C 10.1 °F /  -12.2 °C 1019.9 in /  34533.8 hPa SW 5.6 mph /  9 km/h 5.6 mph /  9 km/h 78 % 0.0 in /  0 mm
19:33 13.8 °F /  -10.1 °C 10.1 °F /  -12.2 °C 1019.9 in /  34533.8 hPa WSW 5.6 mph /  9 km/h 5.6 mph /  9 km/h 78 % 0.0 in /  0 mm
19:38 13.6 °F /  -10.2 °C 10.0 °F /  -12.2 °C 1019.9 in /  34533.8 hPa West 3.7 mph /  6 km/h 3.7 mph /  6 km/h 79 % 0.0 in /  0 mm
19:43 13.5 °F /  -10.3 °C 9.9 °F /  -12.3 °C 1019.9 in /  34533.8 hPa West 3.7 mph /  6 km/h 3.7 mph /  6 km/h 79 % 0.0 in /  0 mm
19:48 13.4 °F /  -10.3 °C 9.8 °F /  -12.3 °C 1019.9 in /  34533.8 hPa WNW 1.9 mph /  3.1 km/h   79 % 0.0 in /  0 mm
19:53 13.3 °F /  -10.4 °C 9.9 °F /  -12.3 °C 1019.9 in /  34533.8 hPa West 1.9 mph /  3.1 km/h   80 % 0.0 in /  0 mm
19:58 13.2 °F /  -10.4 °C 9.8 °F /  -12.3 °C 1019.9 in /  34533.8 hPa Calm     80 % 0.0 in /  0 mm
20:13 12.9 °F /  -10.6 °C 9.3 °F /  -12.6 °C 1019.9 in /  34533.8 hPa West 5.6 mph /  9 km/h 5.6 mph /  9 km/h 79 % 0.0 in /  0 mm
20:28 13.0 °F /  -10.6 °C 9.6 °F /  -12.4 °C 1019.9 in /  34533.8 hPa WSW 3.7 mph /  6 km/h 3.7 mph /  6 km/h 80 % 0.0 in /  0 mm
20:33 12.9 °F /  -10.6 °C 9.6 °F /  -12.4 °C 1019.9 in /  34533.8 hPa WSW 3.7 mph /  6 km/h 3.7 mph /  6 km/h 80 % 0.0 in /  0 mm
20:38 12.8 °F /  -10.7 °C 9.4 °F /  -12.6 °C 1019.9 in /  34533.8 hPa WSW 3.7 mph /  6 km/h 3.7 mph /  6 km/h 80 % 0.0 in /  0 mm
20:48 12.6 °F /  -10.8 °C 9.4 °F /  -12.6 °C 1019.9 in /  34533.8 hPa Calm     81 % 0.0 in /  0 mm
20:58 12.5 °F /  -10.8 °C 9.5 °F /  -12.5 °C 1019.9 in /  34533.8 hPa West 2.3 mph /  3.7 km/h 2.3 mph /  3.7 km/h 82 % 0.0 in /  0 mm
20:59 12.5 °F /  -10.8 °C 9.5 °F /  -12.5 °C 1019.9 in /  34533.8 hPa SW 3.7 mph /  6 km/h 3.7 mph /  6 km/h 82 % 0.0 in /  0 mm
21:04 12.5 °F /  -10.8 °C 9.5 °F /  -12.5 °C 1019.9 in /  34533.8 hPa WSW 3.7 mph /  6 km/h 3.7 mph /  6 km/h 82 % 0.0 in /  0 mm
21:05 9.4 °F /  -12.6 °C 4.4 °F /  -15.3 °C 1018.8 in /  34496.6 hPa WNW 1.6 mph /  2.6 km/h 3.2 mph /  5.1 km/h 71 % 0.0 in /  0 mm
21:09 12.4 °F /  -10.9 °C 9.4 °F /  -12.6 °C 1019.9 in /  34533.8 hPa West 3.5 mph /  5.6 km/h   82 % 0.0 in /  0 mm
21:14 12.2 °F /  -11 °C 9.1 °F /  -12.7 °C 1019.9 in /  34533.8 hPa WSW 1.9 mph /  3.1 km/h 2.3 mph /  3.7 km/h 81 % 0.0 in /  0 mm
21:15 9.5 °F /  -12.5 °C 3.9 °F /  -15.6 °C 1019.9 in /  34533.8 hPa WNW 1.6 mph /  2.6 km/h 1.6 mph /  2.6 km/h 68 % 0.0 in /  0 mm
21:19 12.1 °F /  -11.1 °C 8.9 °F /  -12.8 °C 1019.9 in /  34533.8 hPa WSW 1.9 mph /  3.1 km/h   81 % 0.0 in /  0 mm
21:24 11.9 °F /  -11.2 °C 8.7 °F /  -12.9 °C 1019.9 in /  34533.8 hPa Calm     81 % 0.0 in /  0 mm
21:25 9.9 °F /  -12.3 °C 4.1 °F /  -15.5 °C 1019.9 in /  34533.8 hPa WNW 1.6 mph /  2.6 km/h 3.2 mph /  5.1 km/h 67 % 0.0 in /  0 mm
21:29 11.8 °F /  -11.2 °C 8.7 °F /  -12.9 °C 1019.9 in /  34533.8 hPa Calm     81 % 0.0 in /  0 mm
21:35 10.4 °F /  -12 °C 4.6 °F /  -15.2 °C 1019.9 in /  34533.8 hPa NW 1.6 mph /  2.6 km/h 1.6 mph /  2.6 km/h 67 % 0.0 in /  0 mm
21:39 11.5 °F /  -11.4 °C 8.3 °F /  -13.2 °C 1019.9 in /  34533.8 hPa WNW 1.9 mph /  3.1 km/h 1.9 mph /  3.1 km/h 81 % 0.0 in /  0 mm
21:44 11.4 °F /  -11.4 °C 8.1 °F /  -13.3 °C 1019.9 in /  34533.8 hPa WSW 3.7 mph /  6 km/h 3.7 mph /  6 km/h 80 % 0.0 in /  0 mm
21:45 10.2 °F /  -12.1 °C 3.7 °F /  -15.7 °C 1018.8 in /  34496.6 hPa Calm   3.2 mph /  5.1 km/h 64 % 0.0 in /  0 mm
21:49 11.2 °F /  -11.6 °C 7.9 °F /  -13.4 °C 1019.9 in /  34533.8 hPa West 3.2 mph /  5.1 km/h 3.2 mph /  5.1 km/h 80 % 0.0 in /  0 mm
22:04 11.2 °F /  -11.6 °C 7.5 °F /  -13.6 °C 1019.9 in /  34533.8 hPa WSW 1.9 mph /  3.1 km/h 1.9 mph /  3.1 km/h 78 % 0.0 in /  0 mm
22:05 9.2 °F /  -12.7 °C 3.2 °F /  -16 °C 1018.8 in /  34496.6 hPa ENE 1.6 mph /  2.6 km/h 3.2 mph /  5.1 km/h 66 % 0.0 in /  0 mm
22:19 11.3 °F /  -11.5 °C 7.8 °F /  -13.4 °C 1019.9 in /  34533.8 hPa Calm     79 % 0.0 in /  0 mm
22:24 11.2 °F /  -11.6 °C 7.7 °F /  -13.5 °C 1019.9 in /  34533.8 hPa Calm     79 % 0.0 in /  0 mm
22:25 8.5 °F /  -13.1 °C 2.9 °F /  -16.2 °C 1018.8 in /  34496.6 hPa Calm   3.2 mph /  5.1 km/h 68 % 0.0 in /  0 mm
22:29 10.8 °F /  -11.8 °C 7.3 °F /  -13.7 °C 1019.9 in /  34533.8 hPa SSE 2.3 mph /  3.7 km/h 2.3 mph /  3.7 km/h 79 % 0.0 in /  0 mm
22:34 10.6 °F /  -11.9 °C 7.1 °F /  -13.8 °C 1019.9 in /  34533.8 hPa SSW 2.6 mph /  4.2 km/h 2.6 mph /  4.2 km/h 79 % 0.0 in /  0 mm
22:35 8.2 °F /  -13.2 °C 2.7 °F /  -16.3 °C 1018.8 in /  34496.6 hPa Calm     68 % 0.0 in /  0 mm
22:39 10.3 °F /  -12.1 °C 6.8 °F /  -14 °C 1019.9 in /  34533.8 hPa Calm     79 % 0.0 in /  0 mm
22:45 8.1 °F /  -13.3 °C 2.8 °F /  -16.2 °C 1018.8 in /  34496.6 hPa WNW 3.2 mph /  5.1 km/h 3.2 mph /  5.1 km/h 69 % 0.0 in /  0 mm
22:55 8.1 °F /  -13.3 °C 2.8 °F /  -16.2 °C 1018.8 in /  34496.6 hPa Calm   4.8 mph /  7.7 km/h 69 % 0.0 in /  0 mm
23:04 9.7 °F /  -12.4 °C 6.2 °F /  -14.3 °C 1019.9 in /  34533.8 hPa WSW 3.9 mph /  6.3 km/h 3.9 mph /  6.3 km/h 79 % 0.0 in /  0 mm
23:05 8.2 °F /  -13.2 °C 2.8 °F /  -16.2 °C 1018.8 in /  34496.6 hPa Calm   1.6 mph /  2.6 km/h 69 % 0.0 in /  0 mm
23:14 9.5 °F /  -12.5 °C 6.2 °F /  -14.3 °C 1019.9 in /  34533.8 hPa Calm     80 % 0.0 in /  0 mm
23:15 8.7 °F /  -12.9 °C 2.9 °F /  -16.2 °C 1018.8 in /  34496.6 hPa West 1.6 mph /  2.6 km/h 3.2 mph /  5.1 km/h 67 % 0.0 in /  0 mm
23:19 9.5 °F /  -12.5 °C 6.2 °F /  -14.3 °C 1019.9 in /  34533.8 hPa SW 3.7 mph /  6 km/h 3.7 mph /  6 km/h 80 % 0.0 in /  0 mm
23:24 9.4 °F /  -12.6 °C 6.1 °F /  -14.4 °C 1019.9 in /  34533.8 hPa SW 1.9 mph /  3.1 km/h 1.9 mph /  3.1 km/h 80 % 0.0 in /  0 mm
23:25 8.4 °F /  -13.1 °C 2.6 °F /  -16.3 °C 1018.8 in /  34496.6 hPa NNW 4.8 mph /  7.7 km/h 4.8 mph /  7.7 km/h 67 % 0.0 in /  0 mm
23:29 9.4 °F /  -12.6 °C 6.3 °F /  -14.3 °C 1019.9 in /  34533.8 hPa Calm     81 % 0.0 in /  0 mm
23:34 9.3 °F /  -12.6 °C 6.2 °F /  -14.3 °C 1019.9 in /  34533.8 hPa Calm     81 % 0.0 in /  0 mm
23:35 8.2 °F /  -13.2 °C 2.4 °F /  -16.4 °C 1018.8 in /  34496.6 hPa North 1.6 mph /  2.6 km/h 4.8 mph /  7.7 km/h 67 % 0.0 in /  0 mm
23:45 8.1 °F /  -13.3 °C 2.3 °F /  -16.5 °C 1018.8 in /  34496.6 hPa NE 1.6 mph /  2.6 km/h 1.6 mph /  2.6 km/h 67 % 0.0 in /  0 mm
23:49 9.2 °F /  -12.7 °C 5.9 °F /  -14.5 °C 1019.9 in /  34533.8 hPa Calm     80 % 0.0 in /  0 mm
23:55 7.5 °F /  -13.6 °C 1.9 °F /  -16.7 °C 1018.8 in /  34496.6 hPa SSW 4.8 mph /  7.7 km/h 4.8 mph /  7.7 km/h 68 % 0.0 in /  0 mm
23:59 9.1 °F /  -12.7 °C 5.8 °F /  -14.6 °C 1019.9 in /  34533.8 hPa NNE 3.7 mph /  6 km/h 3.7 mph /  6 km/h 80 % 0.0 in /  0 mm
Meteo Sesrovires
Elogis d' Weather Underground - 1.5 mb

Guio original per  Jim McMurry - jmcmurry@mwt.net Adaptat per a la plantilla per  Wim van der Kuil - Leuven-Template.eu

Trobareu la nostra informacio del temps tambe a:

Weather Underground

AWEKAS